createdAt,value
2017-12-30T06:33:20.674Z,11.73
2017-12-30T06:35:52.551Z,16.67
2017-12-30T06:38:24.739Z,19.77
2017-12-30T06:40:56.611Z,13.83
2017-12-30T06:43:28.496Z,18.83
2017-12-30T06:46:00.372Z,17.00
2017-12-30T06:48:32.263Z,23.43
2017-12-30T06:51:04.911Z,19.30
2017-12-30T06:53:36.811Z,13.80
2017-12-30T06:56:09.447Z,20.33
2017-12-30T06:58:41.335Z,20.43
2017-12-30T07:01:13.967Z,24.83
2017-12-30T07:03:45.884Z,32.57
2017-12-30T07:06:18.520Z,24.90
2017-12-30T07:08:50.429Z,17.27
2017-12-30T07:11:23.055Z,25.33
2017-12-30T07:13:54.946Z,25.70
2017-12-30T07:16:27.591Z,20.50
2017-12-30T07:18:59.483Z,14.20
2017-12-30T07:21:31.364Z,17.50
2017-12-30T07:24:04.024Z,21.50
2017-12-30T07:26:35.891Z,19.63
2017-12-30T07:29:08.790Z,17.47
2017-12-30T07:31:40.654Z,10.80
2017-12-30T07:34:12.563Z,17.00
2017-12-30T07:36:44.432Z,14.67
2017-12-30T07:39:16.333Z,16.60
2017-12-30T07:41:48.204Z,17.07
2017-12-30T07:44:20.095Z,12.47
2017-12-30T07:46:51.958Z,18.90
2017-12-30T07:49:23.868Z,13.57
2017-12-30T07:51:56.486Z,13.70
2017-12-30T07:54:28.383Z,11.97
2017-12-30T07:57:00.250Z,9.83
2017-12-30T07:59:32.891Z,15.97
2017-12-30T08:02:04.762Z,13.90
2017-12-30T08:04:36.663Z,13.10
2017-12-30T08:07:09.301Z,14.70
2017-12-30T08:09:41.455Z,19.83
2017-12-30T08:12:13.325Z,14.00
2017-12-30T08:14:45.218Z,13.87
2017-12-30T08:17:17.850Z,18.47
2017-12-30T08:19:49.736Z,14.23
2017-12-30T08:22:21.603Z,14.00
2017-12-30T08:24:53.503Z,16.87
2017-12-30T08:27:25.366Z,13.40
2017-12-30T08:29:57.269Z,10.37
2017-12-30T08:32:29.127Z,13.57
2017-12-30T08:35:01.034Z,18.97
2017-12-30T08:37:32.907Z,22.37
2017-12-30T08:40:04.800Z,17.53
2017-12-30T08:42:36.667Z,14.80
2017-12-30T08:45:08.563Z,15.43
2017-12-30T08:47:41.199Z,17.57
2017-12-30T08:50:13.786Z,15.87
2017-12-30T08:52:45.682Z,14.63
2017-12-30T08:55:18.326Z,20.27
2017-12-30T08:57:50.215Z,21.40
2017-12-30T09:00:22.874Z,15.40
2017-12-30T09:02:54.772Z,16.43
2017-12-30T09:05:27.390Z,11.83
2017-12-30T09:07:59.266Z,17.20
2017-12-30T09:10:31.362Z,18.63
2017-12-30T09:13:03.231Z,16.70
2017-12-30T09:15:35.131Z,14.03
2017-12-30T09:18:06.999Z,10.17
2017-12-30T09:20:38.891Z,17.67
2017-12-30T09:23:11.534Z,14.63
2017-12-30T09:25:43.422Z,14.60
2017-12-30T09:28:16.063Z,15.83
2017-12-30T09:30:47.962Z,10.97
2017-12-30T09:33:20.599Z,14.63
2017-12-30T09:35:52.504Z,14.10
2017-12-30T09:38:25.126Z,15.17
2017-12-30T09:40:57.007Z,15.07
2017-12-30T09:43:28.887Z,9.43
2017-12-30T09:46:00.791Z,15.97
2017-12-30T09:48:32.741Z,11.20
2017-12-30T09:51:05.388Z,12.80
2017-12-30T09:53:37.259Z,12.70
2017-12-30T09:56:09.928Z,10.50
2017-12-30T09:58:41.796Z,12.87
2017-12-30T10:01:14.455Z,11.87
2017-12-30T10:03:46.320Z,8.47
2017-12-30T10:06:18.223Z,12.10
2017-12-30T10:08:50.099Z,8.47
2017-12-30T10:11:21.990Z,15.27
2017-12-30T10:13:53.863Z,10.57
2017-12-30T10:16:26.564Z,11.43
2017-12-30T10:18:58.422Z,13.10
2017-12-30T10:21:31.083Z,8.97
2017-12-30T10:24:02.953Z,15.87
2017-12-30T10:26:35.613Z,10.87
2017-12-30T10:29:07.481Z,11.83
2017-12-30T10:31:39.671Z,10.93
2017-12-30T10:34:11.538Z,11.80
2017-12-30T10:36:43.535Z,12.83
2017-12-30T10:39:15.445Z,9.67
2017-12-30T10:41:48.107Z,14.73
2017-12-30T10:44:19.986Z,11.97
2017-12-30T10:46:52.660Z,11.90
2017-12-30T10:49:25.287Z,5.47
2017-12-30T10:51:57.187Z,13.33
2017-12-30T10:54:29.063Z,10.43
2017-12-30T10:57:01.735Z,13.13
2017-12-30T10:59:34.383Z,19.73
2017-12-30T11:02:06.278Z,19.10
2017-12-30T11:04:38.914Z,30.77
2017-12-30T11:07:11.505Z,24.73
2017-12-30T11:09:43.419Z,30.50
2017-12-30T11:12:15.262Z,55.77
2017-12-30T11:14:47.130Z,55.43
2017-12-30T11:17:19.036Z,48.60
2017-12-30T11:19:51.740Z,59.97
2017-12-30T11:22:23.628Z,75.27
2017-12-30T11:24:55.495Z,51.80
2017-12-30T11:27:27.379Z,73.73
2017-12-30T11:29:59.252Z,86.67
2017-12-30T11:32:31.158Z,62.50
2017-12-30T11:35:03.787Z,58.27
2017-12-30T11:37:35.695Z,51.53
2017-12-30T11:40:08.333Z,81.57
2017-12-30T11:42:40.222Z,57.53
2017-12-30T11:45:12.863Z,56.27
2017-12-30T11:47:44.755Z,68.47
2017-12-30T11:50:17.396Z,64.87
2017-12-30T11:52:49.280Z,65.37
2017-12-30T11:55:21.159Z,66.00
2017-12-30T11:57:53.827Z,72.00
2017-12-30T12:00:25.706Z,73.13
2017-12-30T12:02:58.367Z,63.80
2017-12-30T12:05:31.016Z,78.40
2017-12-30T12:08:02.923Z,86.83
2017-12-30T12:10:34.795Z,64.57
2017-12-30T12:13:06.699Z,70.53
2017-12-30T12:15:38.579Z,74.83
2017-12-30T12:18:10.486Z,69.97
2017-12-30T12:20:42.359Z,85.10
2017-12-30T12:23:14.495Z,80.57
2017-12-30T12:25:46.372Z,76.93
2017-12-30T12:28:18.267Z,80.27
2017-12-30T12:30:50.143Z,68.23
2017-12-30T12:33:22.059Z,66.97
2017-12-30T12:35:53.928Z,91.67
2017-12-30T12:38:25.832Z,67.37
2017-12-30T12:40:57.720Z,65.20
2017-12-30T12:43:29.632Z,67.30
2017-12-30T12:46:01.816Z,57.40
2017-12-30T12:48:33.711Z,64.07
2017-12-30T12:51:05.594Z,45.37
2017-12-30T12:53:37.503Z,54.97
2017-12-30T12:56:09.701Z,61.17
2017-12-30T12:58:41.596Z,48.20
2017-12-30T13:01:13.520Z,54.87
2017-12-30T13:03:45.415Z,45.67
2017-12-30T13:06:17.327Z,54.07
2017-12-30T13:08:49.255Z,59.43
2017-12-30T13:11:21.151Z,51.57
2017-12-30T13:13:53.071Z,48.93
2017-12-30T13:16:24.964Z,59.67
2017-12-30T13:18:57.652Z,49.57
2017-12-30T13:21:30.283Z,52.17
2017-12-30T13:24:02.947Z,46.43
2017-12-30T13:26:34.823Z,61.60
2017-12-30T13:29:06.724Z,58.23
2017-12-30T13:31:38.626Z,48.40
2017-12-30T13:34:10.531Z,50.43
2017-12-30T13:36:43.176Z,57.37
2017-12-30T13:39:15.075Z,52.73
2017-12-30T13:41:47.721Z,50.13
2017-12-30T13:44:19.627Z,43.73
2017-12-30T13:46:51.528Z,43.23
2017-12-30T13:49:23.435Z,42.73
2017-12-30T13:51:56.070Z,48.00
2017-12-30T13:54:27.975Z,48.30
2017-12-30T13:57:00.616Z,51.93
2017-12-30T13:59:32.523Z,43.40
2017-12-30T14:02:05.172Z,50.30
2017-12-30T14:04:37.078Z,44.73
2017-12-30T14:07:08.959Z,45.93
2017-12-30T14:09:40.880Z,51.23
2017-12-30T14:12:13.528Z,45.97
2017-12-30T14:14:45.449Z,44.57
2017-12-30T14:17:17.315Z,42.57
2017-12-30T14:19:49.218Z,44.43
2017-12-30T14:22:21.095Z,42.73
2017-12-30T14:24:54.099Z,43.77
2017-12-30T14:27:25.968Z,45.13
2017-12-30T14:29:57.857Z,41.47
2017-12-30T14:32:29.743Z,33.33
2017-12-30T14:35:01.671Z,44.10
2017-12-30T14:37:33.515Z,38.33
2017-12-30T14:40:05.426Z,32.40
2017-12-30T14:42:37.295Z,52.13
2017-12-30T14:45:09.974Z,43.40
2017-12-30T14:47:42.619Z,43.70
2017-12-30T14:50:14.519Z,45.00
2017-12-30T14:52:47.151Z,44.70
2017-12-30T14:55:19.059Z,34.10
2017-12-30T14:57:51.951Z,45.57
2017-12-30T15:00:23.849Z,44.37
2017-12-30T15:02:55.722Z,46.50
2017-12-30T15:05:27.660Z,50.83
2017-12-30T15:07:59.519Z,36.67
2017-12-30T15:10:31.427Z,54.27
2017-12-30T15:13:03.299Z,35.50
2017-12-30T15:15:35.967Z,43.67
2017-12-30T15:18:07.839Z,46.20
2017-12-30T15:20:40.509Z,46.17
2017-12-30T15:23:13.159Z,38.50
2017-12-30T15:25:45.064Z,49.13
2017-12-30T15:28:17.707Z,42.20
2017-12-30T15:30:49.703Z,43.83
2017-12-30T15:33:21.602Z,42.33
2017-12-30T15:35:53.491Z,53.13
2017-12-30T15:38:25.368Z,41.07
2017-12-30T15:40:58.036Z,39.73
2017-12-30T15:43:29.919Z,39.13
2017-12-30T15:46:02.581Z,42.30
2017-12-30T15:48:34.455Z,41.17
2017-12-30T15:51:07.119Z,44.40
2017-12-30T15:53:38.986Z,51.47
2017-12-30T15:56:11.658Z,45.63
2017-12-30T15:58:43.560Z,37.90
2017-12-30T16:01:15.464Z,44.43
2017-12-30T16:03:47.335Z,43.00
2017-12-30T16:06:19.236Z,37.17
2017-12-30T16:08:51.104Z,46.23
2017-12-30T16:11:23.003Z,53.83
2017-12-30T16:13:54.875Z,43.17
2017-12-30T16:16:26.773Z,43.33
2017-12-30T16:19:00.113Z,43.77
2017-12-30T16:21:32.007Z,46.10
2017-12-30T16:24:04.647Z,35.90
2017-12-30T16:26:36.563Z,40.13
2017-12-30T16:29:08.444Z,37.33
2017-12-30T16:31:40.364Z,40.20
2017-12-30T16:34:13.007Z,37.57
2017-12-30T16:36:44.910Z,38.73
2017-12-30T16:39:17.547Z,41.10
2017-12-30T16:41:49.455Z,47.40
2017-12-30T16:44:21.328Z,36.10
2017-12-30T16:46:53.248Z,43.63
2017-12-30T16:49:25.128Z,40.77
2017-12-30T16:51:57.784Z,38.73
2017-12-30T16:54:29.663Z,33.17
2017-12-30T16:57:01.567Z,35.27
2017-12-30T16:59:33.467Z,37.90
2017-12-30T17:02:05.368Z,37.57
2017-12-30T17:04:37.244Z,38.97
2017-12-30T17:07:09.142Z,34.63
2017-12-30T17:09:41.058Z,27.73
2017-12-30T17:12:13.699Z,26.87
2017-12-30T17:14:46.346Z,29.13
2017-12-30T17:17:18.239Z,32.73
2017-12-30T17:19:50.883Z,25.10
2017-12-30T17:22:22.792Z,31.13
2017-12-30T17:24:55.423Z,30.83
2017-12-30T17:27:27.314Z,33.30
2017-12-30T17:29:59.997Z,29.50
2017-12-30T17:32:31.867Z,31.13
2017-12-30T17:35:03.751Z,27.93
2017-12-30T17:37:35.663Z,26.60
2017-12-30T17:40:07.561Z,34.10
2017-12-30T17:42:39.483Z,27.70
2017-12-30T17:45:11.375Z,26.27
2017-12-30T17:47:43.277Z,30.03
2017-12-30T17:50:15.155Z,24.93
2017-12-30T17:52:47.047Z,26.87
2017-12-30T17:55:18.923Z,31.03
2017-12-30T17:57:50.827Z,25.70
2017-12-30T18:00:22.712Z,31.70
2017-12-30T18:02:55.725Z,28.87
2017-12-30T18:05:27.599Z,35.43
2017-12-30T18:07:59.498Z,26.20
2017-12-30T18:10:31.370Z,26.97
2017-12-30T18:13:03.275Z,27.70
2017-12-30T18:15:35.143Z,24.67
2017-12-30T18:18:07.058Z,34.73
2017-12-30T18:20:39.756Z,31.90
2017-12-30T18:23:12.419Z,26.27
2017-12-30T18:25:45.059Z,25.97
2017-12-30T18:28:16.942Z,25.27
2017-12-30T18:30:48.810Z,26.53
2017-12-30T18:33:20.706Z,29.30
2017-12-30T18:35:52.586Z,28.00
2017-12-30T18:38:24.483Z,31.77
2017-12-30T18:40:56.357Z,28.57
2017-12-30T18:43:29.034Z,29.53
2017-12-30T18:46:00.905Z,31.97
2017-12-30T18:48:33.551Z,25.60
2017-12-30T18:51:05.436Z,30.23
2017-12-30T18:53:37.319Z,25.03
2017-12-30T18:56:09.191Z,31.53
2017-12-30T18:58:41.082Z,27.33
2017-12-30T19:01:12.954Z,25.10
2017-12-30T19:03:44.858Z,24.33
2017-12-30T19:06:16.727Z,36.97
2017-12-30T19:08:48.631Z,27.03
2017-12-30T19:11:20.502Z,27.13
2017-12-30T19:13:52.407Z,27.43
2017-12-30T19:16:24.288Z,27.97
2017-12-30T19:18:56.266Z,31.77
2017-12-30T19:21:28.143Z,30.77
2017-12-30T19:24:00.048Z,28.20
2017-12-30T19:26:31.932Z,26.30
2017-12-30T19:29:04.063Z,28.83
2017-12-30T19:31:36.671Z,26.43
2017-12-30T19:34:08.571Z,32.13
2017-12-30T19:36:40.450Z,33.37
2017-12-30T19:39:13.120Z,24.87
2017-12-30T19:41:44.990Z,28.03
2017-12-30T19:44:17.667Z,36.27
2017-12-30T19:46:50.303Z,30.90
2017-12-30T19:49:22.212Z,26.13
2017-12-30T19:51:54.900Z,27.70
2017-12-30T19:54:26.808Z,31.07
2017-12-30T19:56:58.688Z,31.47
2017-12-30T19:59:30.571Z,27.40
2017-12-30T20:02:03.210Z,32.10
2017-12-30T20:04:35.116Z,25.43
2017-12-30T20:07:06.994Z,28.47
2017-12-30T20:09:38.887Z,24.83
2017-12-30T20:12:10.759Z,26.97
2017-12-30T20:14:42.667Z,28.93
2017-12-30T20:17:14.853Z,24.77
2017-12-30T20:19:46.747Z,31.67
2017-12-30T20:22:18.651Z,33.23
2017-12-30T20:24:50.552Z,30.90
2017-12-30T20:27:22.432Z,27.20
2017-12-30T20:29:54.311Z,24.03
2017-12-30T20:32:26.959Z,27.40
2017-12-30T20:34:58.862Z,31.87
2017-12-30T20:37:31.508Z,32.50
2017-12-30T20:40:03.461Z,28.13
2017-12-30T20:42:35.278Z,35.13
2017-12-30T20:45:07.186Z,28.37
2017-12-30T20:47:39.294Z,24.43
2017-12-30T20:50:11.191Z,29.80
2017-12-30T20:52:43.835Z,25.63
2017-12-30T20:55:15.747Z,31.43
2017-12-30T20:57:47.615Z,30.50
2017-12-30T21:00:19.519Z,24.20
2017-12-30T21:02:51.394Z,31.03
2017-12-30T21:05:23.279Z,31.03
2017-12-30T21:07:55.155Z,27.77
2017-12-30T21:10:27.067Z,31.90
